Startpagina
METAR-TAF:

METAR-TAF

Vliegvelden :

Luchthaven van Khartoem

Khartoem, Soedan

breedte: 15-36N, lengte: 032-33E, hoogte: 382 m

Actueel weer

Dit bericht is 5 minuten geleden gemaakt, om 23:30 UTC
Wind 3 kt uit het noorden
Temperatuur 33°C
Vochtigheid 28%
Druk 1008 hPa
Zicht 10 km of meer
geen wolken onder 1500 m en geen cumulonimbus

METAR: HSSS 262330Z 36003KT CAVOK 33/12 Q1008 NOSIG

Tijdstip: 02:35 (23:35 UTC)

Verwachting

Dit bericht is 35 minuten geleden gemaakt, om 23:00 UTC
Verwachting geldig van 27 om 00 UTC tot 28 om 06 UTC
Wind 3 kt uit variabele richting
Zicht 10 km of meer
Gebroken wolken op 14000 ft
Tijdelijke
van 27 om 05 UTC tot 27 om 09 UTC
Wind 6 kt uit het noordnoordoosten met uitschieters tot 16 kt
Tijdelijke
van 27 om 16 UTC tot 27 om 21 UTC
Wind 10 kt uit het noordoosten met uitschieters tot 20 kt
Zicht: 4000 m
Stuifzand

TAF: HSSS 262300Z 2700/2806 VRB03KT 9999 BKN140 TEMPO 2705/2709 03006G16KT TEMPO 2716/2721 4000 BLSA 04010G20KT

Waarnemingen en weersverwachtingen van meer dan 4000 vliegvelden (METAR en TAF).

De beschikbare stations zijn de gele en rode punten op de kaart.

Ga met uw muis naar het station om de naam te zien.

Klik dan om waarnemingen en weersverwachtingen te zien.

kaart wijzigen: klik op de groene knoppen met een zwart kruis om in te zoomen, op de groene knop met een streepje om uit te zoomen of op de groene pijlen voor aangrenzende kaarten.


METAR-TAF: